PWSweather.com
Personal Weather Stations
Station Observations
WD4JKH
Forsyth, GA 31029

Forsyth, GA 31029

Lat: 33.033225, Lon: -83.927995

Elevation: 709

Station Type: Davis Vantage VUE

High Low Average
Temperature 64.3°F17.9°C 47.2°F8.4°C 53.8°F12.1°C
Dew Point 46.0°F7.8°C 33.8°F1.0°C 40.6°F4.8°C
Winds 7.2 mph 11.6 kmh 1.0 mph 1.6 kmh 3.0 mph NW4.8 kmh NW
Wind Gusts 18.0 mph29.0 kmh 4.0 mph6.4 kmh 10.0 mph16.1 kmh
Humidity 90% 34% 65%
Pressure 30.20 in1022.7 mb 30.09 in1019.0 mb -
Precipitation 0.00 in0.0 mm - -
Hour Temp Dew Point Humidity Winds Wind Gusts Pressure Precip Precip Rate Daily Precip Total
12:00 AM 49.1°F9.5°C 46.0°F7.8°C 89% 4.5 mph WNW7.2 kmh WNW 13.0 mph20.9 kmh 30.14 in1020.7 mb 0.00 in0.0 mm 0.00 in0.0 mm 0.00 in0.0 mm
12:05 AM 49.1°F9.5°C 46.0°F7.8°C 89% 5.5 mph NW8.9 kmh NW 13.0 mph20.9 kmh 30.14 in1020.7 mb 0.00 in0.0 mm 0.00 in0.0 mm 0.00 in0.0 mm
12:10 AM 49.1°F9.5°C 46.0°F7.8°C 89% 4.4 mph NW7.1 kmh NW 17.0 mph27.4 kmh 30.14 in1020.7 mb 0.00 in0.0 mm 0.00 in0.0 mm 0.00 in0.0 mm
12:15 AM 49.1°F9.5°C 46.0°F7.8°C 89% 3.6 mph NW5.8 kmh NW 17.0 mph27.4 kmh 30.14 in1020.7 mb 0.00 in0.0 mm 0.00 in0.0 mm 0.00 in0.0 mm
12:20 AM 49.1°F9.5°C 46.0°F7.8°C 89% 5.1 mph NW8.2 kmh NW 17.0 mph27.4 kmh 30.14 in1020.7 mb 0.00 in0.0 mm 0.00 in0.0 mm 0.00 in0.0 mm
12:25 AM 49.1°F9.5°C 46.0°F7.8°C 89% 3.3 mph NW5.3 kmh NW 17.0 mph27.4 kmh 30.14 in1020.7 mb 0.00 in0.0 mm 0.00 in0.0 mm 0.00 in0.0 mm
12:30 AM 49.1°F9.5°C 46.0°F7.8°C 89% 4.9 mph NW7.9 kmh NW 14.0 mph22.5 kmh 30.13 in1020.3 mb 0.00 in0.0 mm 0.00 in0.0 mm 0.00 in0.0 mm
12:35 AM 49.0°F9.4°C 45.9°F7.7°C 89% 4.7 mph NW7.6 kmh NW 14.0 mph22.5 kmh 30.14 in1020.7 mb 0.00 in0.0 mm 0.00 in0.0 mm 0.00 in0.0 mm
12:40 AM 49.0°F9.4°C 45.9°F7.7°C 89% 6.8 mph NW10.9 kmh NW 18.0 mph29.0 kmh 30.13 in1020.3 mb 0.00 in0.0 mm 0.00 in0.0 mm 0.00 in0.0 mm
12:45 AM 49.0°F9.4°C 45.9°F7.7°C 89% 3.3 mph NW5.3 kmh NW 18.0 mph29.0 kmh 30.13 in1020.3 mb 0.00 in0.0 mm 0.00 in0.0 mm 0.00 in0.0 mm
12:50 AM 49.0°F9.4°C 45.9°F7.7°C 89% 4.9 mph NW7.9 kmh NW 18.0 mph29.0 kmh 30.13 in1020.3 mb 0.00 in0.0 mm 0.00 in0.0 mm 0.00 in0.0 mm
12:55 AM 49.1°F9.5°C 46.0°F7.8°C 89% 5.0 mph NW8.0 kmh NW 18.0 mph29.0 kmh 30.13 in1020.3 mb 0.00 in0.0 mm 0.00 in0.0 mm 0.00 in0.0 mm
01:00 AM 49.1°F9.5°C 46.0°F7.8°C 89% 3.3 mph NW5.3 kmh NW 13.0 mph20.9 kmh 30.13 in1020.3 mb 0.00 in0.0 mm 0.00 in0.0 mm 0.00 in0.0 mm
01:05 AM 49.0°F9.4°C 45.9°F7.7°C 89% 4.5 mph NW7.2 kmh NW 13.0 mph20.9 kmh 30.13 in1020.3 mb 0.00 in0.0 mm 0.00 in0.0 mm 0.00 in0.0 mm
01:10 AM 49.1°F9.5°C 46.0°F7.8°C 89% 6.9 mph NW11.1 kmh NW 14.0 mph22.5 kmh 30.14 in1020.7 mb 0.00 in0.0 mm 0.00 in0.0 mm 0.00 in0.0 mm
01:15 AM 49.1°F9.5°C 46.0°F7.8°C 89% 6.0 mph NW9.7 kmh NW 14.0 mph22.5 kmh 30.14 in1020.7 mb 0.00 in0.0 mm 0.00 in0.0 mm 0.00 in0.0 mm
01:20 AM 49.0°F9.4°C 45.9°F7.7°C 89% 5.2 mph NW8.4 kmh NW 14.0 mph22.5 kmh 30.14 in1020.7 mb 0.00 in0.0 mm 0.00 in0.0 mm 0.00 in0.0 mm
01:25 AM 49.0°F9.4°C 45.9°F7.7°C 89% 4.2 mph NW6.8 kmh NW 14.0 mph22.5 kmh 30.14 in1020.7 mb 0.00 in0.0 mm 0.00 in0.0 mm 0.00 in0.0 mm
01:30 AM 48.9°F9.4°C 45.8°F7.7°C 89% 5.2 mph NW8.4 kmh NW 14.0 mph22.5 kmh 30.14 in1020.7 mb 0.00 in0.0 mm 0.00 in0.0 mm 0.00 in0.0 mm
01:35 AM 48.8°F9.3°C 46.0°F7.8°C 90% 5.2 mph NW8.4 kmh NW 14.0 mph22.5 kmh 30.14 in1020.7 mb 0.00 in0.0 mm 0.00 in0.0 mm 0.00 in0.0 mm
01:40 AM 48.8°F9.3°C 46.0°F7.8°C 90% 3.5 mph NW5.6 kmh NW 14.0 mph22.5 kmh 30.14 in1020.7 mb 0.00 in0.0 mm 0.00 in0.0 mm 0.00 in0.0 mm
01:45 AM 48.8°F9.3°C 46.0°F7.8°C 90% 3.3 mph NW5.3 kmh NW 14.0 mph22.5 kmh 30.13 in1020.3 mb 0.00 in0.0 mm 0.00 in0.0 mm 0.00 in0.0 mm
01:50 AM 48.8°F9.3°C 46.0°F7.8°C 90% 5.4 mph NW8.7 kmh NW 14.0 mph22.5 kmh 30.13 in1020.3 mb 0.00 in0.0 mm 0.00 in0.0 mm 0.00 in0.0 mm
01:55 AM 48.7°F9.3°C 45.9°F7.7°C 90% 4.3 mph NW6.9 kmh NW 12.0 mph19.3 kmh 30.13 in1020.3 mb 0.00 in0.0 mm 0.00 in0.0 mm 0.00 in0.0 mm
02:00 AM 48.8°F9.3°C 46.0°F7.8°C 90% 4.8 mph NW7.7 kmh NW 11.0 mph17.7 kmh 30.13 in1020.3 mb 0.00 in0.0 mm 0.00 in0.0 mm 0.00 in0.0 mm
02:05 AM 48.7°F9.3°C 45.9°F7.7°C 90% 2.9 mph NW4.7 kmh NW 13.0 mph20.9 kmh 30.13 in1020.3 mb 0.00 in0.0 mm 0.00 in0.0 mm 0.00 in0.0 mm
02:10 AM 48.8°F9.3°C 46.0°F7.8°C 90% 7.0 mph NW11.3 kmh NW 14.0 mph22.5 kmh 30.13 in1020.3 mb 0.00 in0.0 mm 0.00 in0.0 mm 0.00 in0.0 mm
02:15 AM 48.7°F9.3°C 45.9°F7.7°C 90% 4.9 mph NW7.9 kmh NW 14.0 mph22.5 kmh 30.13 in1020.3 mb 0.00 in0.0 mm 0.00 in0.0 mm 0.00 in0.0 mm
02:20 AM 48.7°F9.3°C 45.9°F7.7°C 90% 4.5 mph NW7.2 kmh NW 14.0 mph22.5 kmh 30.13 in1020.3 mb 0.00 in0.0 mm 0.00 in0.0 mm 0.00 in0.0 mm
02:25 AM 48.8°F9.3°C 46.0°F7.8°C 90% 5.8 mph NW9.3 kmh NW 14.0 mph22.5 kmh 30.13 in1020.3 mb 0.00 in0.0 mm 0.00 in0.0 mm 0.00 in0.0 mm
02:30 AM 48.8°F9.3°C 46.0°F7.8°C 90% 5.2 mph NW8.4 kmh NW 13.0 mph20.9 kmh 30.13 in1020.3 mb 0.00 in0.0 mm 0.00 in0.0 mm 0.00 in0.0 mm
02:35 AM 48.8°F9.3°C 46.0°F7.8°C 90% 6.5 mph NW10.5 kmh NW 14.0 mph22.5 kmh 30.13 in1020.3 mb 0.00 in0.0 mm 0.00 in0.0 mm 0.00 in0.0 mm
02:40 AM 48.9°F9.4°C 45.8°F7.7°C 89% 5.4 mph NW8.7 kmh NW 14.0 mph22.5 kmh 30.13 in1020.3 mb 0.00 in0.0 mm 0.00 in0.0 mm 0.00 in0.0 mm
02:45 AM 48.8°F9.3°C 45.7°F7.6°C 89% 4.7 mph NW7.6 kmh NW 14.0 mph22.5 kmh 30.13 in1020.3 mb 0.00 in0.0 mm 0.00 in0.0 mm 0.00 in0.0 mm
02:50 AM 48.8°F9.3°C 45.7°F7.6°C 89% 3.7 mph NW6.0 kmh NW 14.0 mph22.5 kmh 30.13 in1020.3 mb 0.00 in0.0 mm 0.00 in0.0 mm 0.00 in0.0 mm
02:54 AM 48.6°F9.2°C 45.8°F7.7°C 90% 3.3 mph NW5.3 kmh NW 14.0 mph22.5 kmh 30.13 in1020.3 mb 0.00 in0.0 mm 0.00 in0.0 mm 0.00 in0.0 mm
02:59 AM 48.5°F9.2°C 45.7°F7.6°C 90% 3.5 mph NW5.6 kmh NW 14.0 mph22.5 kmh 30.13 in1020.3 mb 0.00 in0.0 mm 0.00 in0.0 mm 0.00 in0.0 mm
03:04 AM 48.5°F9.2°C 45.7°F7.6°C 90% 3.9 mph NW6.3 kmh NW 12.0 mph19.3 kmh 30.13 in1020.3 mb 0.00 in0.0 mm 0.00 in0.0 mm 0.00 in0.0 mm
03:09 AM 48.4°F9.1°C 45.6°F7.6°C 90% 3.6 mph NW5.8 kmh NW 10.0 mph16.1 kmh 30.13 in1020.3 mb 0.00 in0.0 mm 0.00 in0.0 mm 0.00 in0.0 mm
03:14 AM 48.4°F9.1°C 45.6°F7.6°C 90% 3.0 mph NNW4.8 kmh NNW 10.0 mph16.1 kmh 30.13 in1020.3 mb 0.00 in0.0 mm 0.00 in0.0 mm 0.00 in0.0 mm
03:19 AM 48.3°F9.1°C 45.5°F7.5°C 90% 2.6 mph NNW4.2 kmh NNW 9.0 mph14.5 kmh 30.13 in1020.3 mb 0.00 in0.0 mm 0.00 in0.0 mm 0.00 in0.0 mm
03:24 AM 48.2°F9.0°C 45.4°F7.4°C 90% 3.7 mph NW6.0 kmh NW 9.0 mph14.5 kmh 30.13 in1020.3 mb 0.00 in0.0 mm 0.00 in0.0 mm 0.00 in0.0 mm
03:29 AM 48.3°F9.1°C 45.5°F7.5°C 90% 1.9 mph NW3.1 kmh NW 10.0 mph16.1 kmh 30.13 in1020.3 mb 0.00 in0.0 mm 0.00 in0.0 mm 0.00 in0.0 mm
03:34 AM 48.3°F9.1°C 45.5°F7.5°C 90% 3.3 mph NW5.3 kmh NW 10.0 mph16.1 kmh 30.12 in1020.0 mb 0.00 in0.0 mm 0.00 in0.0 mm 0.00 in0.0 mm
03:39 AM 48.3°F9.1°C 45.5°F7.5°C 90% 2.4 mph NW3.9 kmh NW 10.0 mph16.1 kmh 30.12 in1020.0 mb 0.00 in0.0 mm 0.00 in0.0 mm 0.00 in0.0 mm
03:44 AM 48.3°F9.1°C 45.5°F7.5°C 90% 3.2 mph NW5.1 kmh NW 9.0 mph14.5 kmh 30.13 in1020.3 mb 0.00 in0.0 mm 0.00 in0.0 mm 0.00 in0.0 mm
03:49 AM 48.4°F9.1°C 45.6°F7.6°C 90% 2.2 mph NW3.5 kmh NW 9.0 mph14.5 kmh 30.13 in1020.3 mb 0.00 in0.0 mm 0.00 in0.0 mm 0.00 in0.0 mm
03:54 AM 48.4°F9.1°C 45.6°F7.6°C 90% 2.7 mph NW4.3 kmh NW 9.0 mph14.5 kmh 30.13 in1020.3 mb 0.00 in0.0 mm 0.00 in0.0 mm 0.00 in0.0 mm
03:59 AM 48.4°F9.1°C 45.6°F7.6°C 90% 2.5 mph NW4.0 kmh NW 8.0 mph12.9 kmh 30.13 in1020.3 mb 0.00 in0.0 mm 0.00 in0.0 mm 0.00 in0.0 mm
04:04 AM 48.5°F9.2°C 45.7°F7.6°C 90% 4.5 mph NW7.2 kmh NW 10.0 mph16.1 kmh 30.13 in1020.3 mb 0.00 in0.0 mm 0.00 in0.0 mm 0.00 in0.0 mm
04:09 AM 48.5°F9.2°C 45.7°F7.6°C 90% 2.0 mph NW3.2 kmh NW 10.0 mph16.1 kmh 30.13 in1020.3 mb 0.00 in0.0 mm 0.00 in0.0 mm 0.00 in0.0 mm
04:14 AM 48.4°F9.1°C 45.6°F7.6°C 90% 2.9 mph NW4.7 kmh NW 10.0 mph16.1 kmh 30.13 in1020.3 mb 0.00 in0.0 mm 0.00 in0.0 mm 0.00 in0.0 mm
04:19 AM 48.3°F9.1°C 45.5°F7.5°C 90% 2.6 mph NW4.2 kmh NW 10.0 mph16.1 kmh 30.13 in1020.3 mb 0.00 in0.0 mm 0.00 in0.0 mm 0.00 in0.0 mm
04:24 AM 48.3°F9.1°C 45.5°F7.5°C 90% 2.3 mph NW3.7 kmh NW 10.0 mph16.1 kmh 30.13 in1020.3 mb 0.00 in0.0 mm 0.00 in0.0 mm 0.00 in0.0 mm
04:29 AM 48.3°F9.1°C 45.5°F7.5°C 90% 2.3 mph NW3.7 kmh NW 10.0 mph16.1 kmh 30.13 in1020.3 mb 0.00 in0.0 mm 0.00 in0.0 mm 0.00 in0.0 mm
04:34 AM 48.3°F9.1°C 45.5°F7.5°C 90% 2.4 mph NW3.9 kmh NW 10.0 mph16.1 kmh 30.13 in1020.3 mb 0.00 in0.0 mm 0.00 in0.0 mm 0.00 in0.0 mm
04:39 AM 48.3°F9.1°C 45.5°F7.5°C 90% 3.3 mph NW5.3 kmh NW 8.0 mph12.9 kmh 30.13 in1020.3 mb 0.00 in0.0 mm 0.00 in0.0 mm 0.00 in0.0 mm
04:44 AM 48.3°F9.1°C 45.5°F7.5°C 90% 3.5 mph NW5.6 kmh NW 8.0 mph12.9 kmh 30.13 in1020.3 mb 0.00 in0.0 mm 0.00 in0.0 mm 0.00 in0.0 mm
04:49 AM 48.3°F9.1°C 45.5°F7.5°C 90% 2.4 mph NW3.9 kmh NW 8.0 mph12.9 kmh 30.13 in1020.3 mb 0.00 in0.0 mm 0.00 in0.0 mm 0.00 in0.0 mm
04:54 AM 48.3°F9.1°C 45.5°F7.5°C 90% 2.8 mph NW4.5 kmh NW 8.0 mph12.9 kmh 30.13 in1020.3 mb 0.00 in0.0 mm 0.00 in0.0 mm 0.00 in0.0 mm
04:59 AM 48.3°F9.1°C 45.5°F7.5°C 90% 2.6 mph NNW4.2 kmh NNW 10.0 mph16.1 kmh 30.13 in1020.3 mb 0.00 in0.0 mm 0.00 in0.0 mm 0.00 in0.0 mm
05:04 AM 48.4°F9.1°C 45.6°F7.6°C 90% 3.5 mph NW5.6 kmh NW 10.0 mph16.1 kmh 30.13 in1020.3 mb 0.00 in0.0 mm 0.00 in0.0 mm 0.00 in0.0 mm
05:09 AM 48.4°F9.1°C 45.6°F7.6°C 90% 2.5 mph NW4.0 kmh NW 10.0 mph16.1 kmh 30.13 in1020.3 mb 0.00 in0.0 mm 0.00 in0.0 mm 0.00 in0.0 mm
05:14 AM 48.4°F9.1°C 45.6°F7.6°C 90% 3.4 mph NW5.5 kmh NW 10.0 mph16.1 kmh 30.13 in1020.3 mb 0.00 in0.0 mm 0.00 in0.0 mm 0.00 in0.0 mm
05:19 AM 48.5°F9.2°C 45.4°F7.4°C 89% 2.5 mph NW4.0 kmh NW 8.0 mph12.9 kmh 30.13 in1020.3 mb 0.00 in0.0 mm 0.00 in0.0 mm 0.00 in0.0 mm
05:24 AM 48.4°F9.1°C 45.3°F7.4°C 89% 2.6 mph NW4.2 kmh NW 9.0 mph14.5 kmh 30.13 in1020.3 mb 0.00 in0.0 mm 0.00 in0.0 mm 0.00 in0.0 mm
05:29 AM 48.4°F9.1°C 45.3°F7.4°C 89% 2.8 mph NW4.5 kmh NW 10.0 mph16.1 kmh 30.13 in1020.3 mb 0.00 in0.0 mm 0.00 in0.0 mm 0.00 in0.0 mm
05:34 AM 48.5°F9.2°C 45.4°F7.4°C 89% 3.3 mph NW5.3 kmh NW 11.0 mph17.7 kmh 30.13 in1020.3 mb 0.00 in0.0 mm 0.00 in0.0 mm 0.00 in0.0 mm
05:39 AM 48.5°F9.2°C 45.4°F7.4°C 89% 2.1 mph NW3.4 kmh NW 11.0 mph17.7 kmh 30.13 in1020.3 mb 0.00 in0.0 mm 0.00 in0.0 mm 0.00 in0.0 mm
05:44 AM 48.4°F9.1°C 45.3°F7.4°C 89% 2.9 mph NW4.7 kmh NW 11.0 mph17.7 kmh 30.13 in1020.3 mb 0.00 in0.0 mm 0.00 in0.0 mm 0.00 in0.0 mm
05:49 AM 48.3°F9.1°C 45.2°F7.3°C 89% 3.2 mph NW5.1 kmh NW 11.0 mph17.7 kmh 30.13 in1020.3 mb 0.00 in0.0 mm 0.00 in0.0 mm 0.00 in0.0 mm
05:54 AM 48.3°F9.1°C 45.2°F7.3°C 89% 2.9 mph NW4.7 kmh NW 9.0 mph14.5 kmh 30.13 in1020.3 mb 0.00 in0.0 mm 0.00 in0.0 mm 0.00 in0.0 mm
05:59 AM 48.3°F9.1°C 45.2°F7.3°C 89% 4.7 mph NW7.6 kmh NW 11.0 mph17.7 kmh 30.13 in1020.3 mb 0.00 in0.0 mm 0.00 in0.0 mm 0.00 in0.0 mm
06:04 AM 48.3°F9.1°C 45.2°F7.3°C 89% 1.9 mph WNW3.1 kmh WNW 11.0 mph17.7 kmh 30.13 in1020.3 mb 0.00 in0.0 mm 0.00 in0.0 mm 0.00 in0.0 mm
06:09 AM 48.3°F9.1°C 45.2°F7.3°C 89% 3.9 mph NW6.3 kmh NW 11.0 mph17.7 kmh 30.13 in1020.3 mb 0.00 in0.0 mm 0.00 in0.0 mm 0.00 in0.0 mm
06:14 AM 48.2°F9.0°C 45.1°F7.3°C 89% 2.2 mph NW3.5 kmh NW 11.0 mph17.7 kmh 30.13 in1020.3 mb 0.00 in0.0 mm 0.00 in0.0 mm 0.00 in0.0 mm
06:19 AM 48.2°F9.0°C 45.1°F7.3°C 89% 2.8 mph NW4.5 kmh NW 8.0 mph12.9 kmh 30.14 in1020.7 mb 0.00 in0.0 mm 0.00 in0.0 mm 0.00 in0.0 mm
06:24 AM 48.2°F9.0°C 45.1°F7.3°C 89% 2.6 mph NW4.2 kmh NW 8.0 mph12.9 kmh 30.14 in1020.7 mb 0.00 in0.0 mm 0.00 in0.0 mm 0.00 in0.0 mm
06:29 AM 48.2°F9.0°C 45.1°F7.3°C 89% 2.9 mph NW4.7 kmh NW 8.0 mph12.9 kmh 30.14 in1020.7 mb 0.00 in0.0 mm 0.00 in0.0 mm 0.00 in0.0 mm
06:34 AM 48.2°F9.0°C 45.1°F7.3°C 89% 2.4 mph NW3.9 kmh NW 8.0 mph12.9 kmh 30.14 in1020.7 mb 0.00 in0.0 mm 0.00 in0.0 mm 0.00 in0.0 mm
06:39 AM 48.2°F9.0°C 45.1°F7.3°C 89% 1.6 mph NW2.6 kmh NW 8.0 mph12.9 kmh 30.14 in1020.7 mb 0.00 in0.0 mm 0.00 in0.0 mm 0.00 in0.0 mm
06:44 AM 48.2°F9.0°C 45.1°F7.3°C 89% 1.8 mph WNW2.9 kmh WNW 8.0 mph12.9 kmh 30.14 in1020.7 mb 0.00 in0.0 mm 0.00 in0.0 mm 0.00 in0.0 mm
06:49 AM 48.1°F8.9°C 45.0°F7.2°C 89% 2.1 mph WNW3.4 kmh WNW 5.0 mph8.0 kmh 30.15 in1021.0 mb 0.00 in0.0 mm 0.00 in0.0 mm 0.00 in0.0 mm
06:54 AM 48.1°F8.9°C 45.0°F7.2°C 89% 1.8 mph WNW2.9 kmh WNW 7.0 mph11.3 kmh 30.15 in1021.0 mb 0.00 in0.0 mm 0.00 in0.0 mm 0.00 in0.0 mm
06:59 AM 48.0°F8.9°C 44.9°F7.2°C 89% 1.3 mph WNW2.1 kmh WNW 7.0 mph11.3 kmh 30.15 in1021.0 mb 0.00 in0.0 mm 0.00 in0.0 mm 0.00 in0.0 mm
07:04 AM 48.0°F8.9°C 44.9°F7.2°C 89% 4.5 mph NW7.2 kmh NW 11.0 mph17.7 kmh 30.15 in1021.0 mb 0.00 in0.0 mm 0.00 in0.0 mm 0.00 in0.0 mm
07:09 AM 48.0°F8.9°C 44.9°F7.2°C 89% 2.6 mph NW4.2 kmh NW 11.0 mph17.7 kmh 30.15 in1021.0 mb 0.00 in0.0 mm 0.00 in0.0 mm 0.00 in0.0 mm
07:14 AM 48.0°F8.9°C 44.9°F7.2°C 89% 2.5 mph WNW4.0 kmh WNW 11.0 mph17.7 kmh 30.15 in1021.0 mb 0.00 in0.0 mm 0.00 in0.0 mm 0.00 in0.0 mm
07:19 AM 48.1°F8.9°C 45.0°F7.2°C 89% 2.7 mph NW4.3 kmh NW 11.0 mph17.7 kmh 30.15 in1021.0 mb 0.00 in0.0 mm 0.00 in0.0 mm 0.00 in0.0 mm
07:24 AM 48.1°F8.9°C 45.0°F7.2°C 89% 3.3 mph NW5.3 kmh NW 7.0 mph11.3 kmh 30.15 in1021.0 mb 0.00 in0.0 mm 0.00 in0.0 mm 0.00 in0.0 mm
07:29 AM 48.0°F8.9°C 44.9°F7.2°C 89% 2.4 mph NW3.9 kmh NW 7.0 mph11.3 kmh 30.15 in1021.0 mb 0.00 in0.0 mm 0.00 in0.0 mm 0.00 in0.0 mm
07:34 AM 47.9°F8.8°C 44.8°F7.1°C 89% 2.7 mph NW4.3 kmh NW 7.0 mph11.3 kmh 30.15 in1021.0 mb 0.00 in0.0 mm 0.00 in0.0 mm 0.00 in0.0 mm
07:39 AM 47.9°F8.8°C 44.8°F7.1°C 89% 4.1 mph NW6.6 kmh NW 9.0 mph14.5 kmh 30.16 in1021.3 mb 0.00 in0.0 mm 0.00 in0.0 mm 0.00 in0.0 mm
07:44 AM 47.9°F8.8°C 44.8°F7.1°C 89% 3.0 mph WNW4.8 kmh WNW 9.0 mph14.5 kmh 30.16 in1021.3 mb 0.00 in0.0 mm 0.00 in0.0 mm 0.00 in0.0 mm
07:49 AM 47.9°F8.8°C 44.8°F7.1°C 89% 3.4 mph NW5.5 kmh NW 9.0 mph14.5 kmh 30.16 in1021.3 mb 0.00 in0.0 mm 0.00 in0.0 mm 0.00 in0.0 mm
07:54 AM 47.9°F8.8°C 44.8°F7.1°C 89% 3.1 mph NW5.0 kmh NW 9.0 mph14.5 kmh 30.15 in1021.0 mb 0.00 in0.0 mm 0.00 in0.0 mm 0.00 in0.0 mm
07:59 AM 47.9°F8.8°C 44.8°F7.1°C 89% 1.3 mph WNW2.1 kmh WNW 8.0 mph12.9 kmh 30.15 in1021.0 mb 0.00 in0.0 mm 0.00 in0.0 mm 0.00 in0.0 mm
08:04 AM 47.8°F8.8°C 44.7°F7.1°C 89% 1.3 mph NW2.1 kmh NW 7.0 mph11.3 kmh 30.15 in1021.0 mb 0.00 in0.0 mm 0.00 in0.0 mm 0.00 in0.0 mm
08:09 AM 47.7°F8.7°C 44.6°F7.0°C 89% 1.3 mph WNW2.1 kmh WNW 7.0 mph11.3 kmh 30.15 in1021.0 mb 0.00 in0.0 mm 0.00 in0.0 mm 0.00 in0.0 mm
08:14 AM 47.7°F8.7°C 44.6°F7.0°C 89% 2.2 mph WNW3.5 kmh WNW 5.0 mph8.0 kmh 30.15 in1021.0 mb 0.00 in0.0 mm 0.00 in0.0 mm 0.00 in0.0 mm
08:19 AM 47.5°F8.6°C 44.4°F6.9°C 89% 1.9 mph NW3.1 kmh NW 5.0 mph8.0 kmh 30.15 in1021.0 mb 0.00 in0.0 mm 0.00 in0.0 mm 0.00 in0.0 mm
08:24 AM 47.4°F8.6°C 44.6°F7.0°C 90% 1.2 mph NW1.9 kmh NW 5.0 mph8.0 kmh 30.15 in1021.0 mb 0.00 in0.0 mm 0.00 in0.0 mm 0.00 in0.0 mm
08:29 AM 47.3°F8.5°C 44.5°F6.9°C 90% 4.0 mph NW6.4 kmh NW 8.0 mph12.9 kmh 30.16 in1021.3 mb 0.00 in0.0 mm 0.00 in0.0 mm 0.00 in0.0 mm
08:34 AM 47.2°F8.4°C 44.4°F6.9°C 90% 3.9 mph NW6.3 kmh NW 8.0 mph12.9 kmh 30.16 in1021.3 mb 0.00 in0.0 mm 0.00 in0.0 mm 0.00 in0.0 mm
08:39 AM 47.5°F8.6°C 44.7°F7.1°C 90% 2.9 mph NW4.7 kmh NW 9.0 mph14.5 kmh 30.17 in1021.7 mb 0.00 in0.0 mm 0.00 in0.0 mm 0.00 in0.0 mm
08:44 AM 47.9°F8.8°C 44.8°F7.1°C 89% 4.5 mph NW7.2 kmh NW 9.0 mph14.5 kmh 30.17 in1021.7 mb 0.00 in0.0 mm 0.00 in0.0 mm 0.00 in0.0 mm
08:49 AM 48.1°F8.9°C 45.0°F7.2°C 89% 4.6 mph NW7.4 kmh NW 9.0 mph14.5 kmh 30.17 in1021.7 mb 0.00 in0.0 mm 0.00 in0.0 mm 0.00 in0.0 mm
08:54 AM 48.4°F9.1°C 45.0°F7.2°C 88% 5.2 mph NW8.4 kmh NW 11.0 mph17.7 kmh 30.18 in1022.0 mb 0.00 in0.0 mm 0.00 in0.0 mm 0.00 in0.0 mm
08:59 AM 48.6°F9.2°C 44.9°F7.2°C 87% 4.8 mph NW7.7 kmh NW 11.0 mph17.7 kmh 30.17 in1021.7 mb 0.00 in0.0 mm 0.00 in0.0 mm 0.00 in0.0 mm
09:04 AM 48.9°F9.4°C 45.2°F7.3°C 87% 5.3 mph NW8.5 kmh NW 11.0 mph17.7 kmh 30.18 in1022.0 mb 0.00 in0.0 mm 0.00 in0.0 mm 0.00 in0.0 mm
09:09 AM 49.2°F9.6°C 45.2°F7.3°C 86% 1.3 mph NW2.1 kmh NW 11.0 mph17.7 kmh 30.18 in1022.0 mb 0.00 in0.0 mm 0.00 in0.0 mm 0.00 in0.0 mm
09:14 AM 49.6°F9.8°C 45.0°F7.2°C 84% 2.7 mph WNW4.3 kmh WNW 10.0 mph16.1 kmh 30.18 in1022.0 mb 0.00 in0.0 mm 0.00 in0.0 mm 0.00 in0.0 mm
09:19 AM 49.9°F9.9°C 44.9°F7.2°C 83% 4.9 mph NW7.9 kmh NW 10.0 mph16.1 kmh 30.18 in1022.0 mb 0.00 in0.0 mm 0.00 in0.0 mm 0.00 in0.0 mm
09:24 AM 50.2°F10.1°C 44.9°F7.2°C 82% 3.1 mph NW5.0 kmh NW 13.0 mph20.9 kmh 30.18 in1022.0 mb 0.00 in0.0 mm 0.00 in0.0 mm 0.00 in0.0 mm
09:29 AM 50.5°F10.3°C 44.9°F7.2°C 81% 2.8 mph NW4.5 kmh NW 13.0 mph20.9 kmh 30.18 in1022.0 mb 0.00 in0.0 mm 0.00 in0.0 mm 0.00 in0.0 mm
09:34 AM 50.8°F10.4°C 44.6°F7.0°C 79% 3.9 mph NW6.3 kmh NW 13.0 mph20.9 kmh 30.18 in1022.0 mb 0.00 in0.0 mm 0.00 in0.0 mm 0.00 in0.0 mm
09:39 AM 51.2°F10.7°C 44.6°F7.0°C 78% 3.6 mph NW5.8 kmh NW 13.0 mph20.9 kmh 30.18 in1022.0 mb 0.00 in0.0 mm 0.00 in0.0 mm 0.00 in0.0 mm
09:44 AM 51.5°F10.8°C 44.9°F7.2°C 78% 2.2 mph NW3.5 kmh NW 9.0 mph14.5 kmh 30.18 in1022.0 mb 0.00 in0.0 mm 0.00 in0.0 mm 0.00 in0.0 mm
09:49 AM 51.9°F11.1°C 44.6°F7.0°C 76% 2.6 mph NW4.2 kmh NW 9.0 mph14.5 kmh 30.19 in1022.4 mb 0.00 in0.0 mm 0.00 in0.0 mm 0.00 in0.0 mm
09:54 AM 52.2°F11.2°C 44.2°F6.8°C 74% 2.8 mph NW4.5 kmh NW 9.0 mph14.5 kmh 30.19 in1022.4 mb 0.00 in0.0 mm 0.00 in0.0 mm 0.00 in0.0 mm
09:59 AM 52.6°F11.4°C 43.8°F6.6°C 72% 3.2 mph NW5.1 kmh NW 8.0 mph12.9 kmh 30.20 in1022.7 mb 0.00 in0.0 mm 0.00 in0.0 mm 0.00 in0.0 mm
10:04 AM 53.1°F11.7°C 43.9°F6.6°C 71% 2.3 mph NW3.7 kmh NW 8.0 mph12.9 kmh 30.19 in1022.4 mb 0.00 in0.0 mm 0.00 in0.0 mm 0.00 in0.0 mm
10:10 AM 53.4°F11.9°C 44.0°F6.7°C 70% 1.5 mph NW2.4 kmh NW 8.0 mph12.9 kmh 30.19 in1022.4 mb 0.00 in0.0 mm 0.00 in0.0 mm 0.00 in0.0 mm
10:15 AM 53.9°F12.2°C 43.7°F6.5°C 68% 1.3 mph WNW2.1 kmh WNW 8.0 mph12.9 kmh 30.19 in1022.4 mb 0.00 in0.0 mm 0.00 in0.0 mm 0.00 in0.0 mm
10:20 AM 54.2°F12.3°C 43.2°F6.2°C 66% 3.6 mph WNW5.8 kmh WNW 8.0 mph12.9 kmh 30.19 in1022.4 mb 0.00 in0.0 mm 0.00 in0.0 mm 0.00 in0.0 mm
10:25 AM 54.5°F12.5°C 42.6°F5.9°C 64% 4.2 mph WNW6.8 kmh WNW 11.0 mph17.7 kmh 30.20 in1022.7 mb 0.00 in0.0 mm 0.00 in0.0 mm 0.00 in0.0 mm
10:30 AM 54.8°F12.7°C 42.4°F5.8°C 63% 2.7 mph WNW4.3 kmh WNW 11.0 mph17.7 kmh 30.20 in1022.7 mb 0.00 in0.0 mm 0.00 in0.0 mm 0.00 in0.0 mm
10:35 AM 55.1°F12.8°C 42.4°F5.8°C 62% 3.9 mph WNW6.3 kmh WNW 11.0 mph17.7 kmh 30.20 in1022.7 mb 0.00 in0.0 mm 0.00 in0.0 mm 0.00 in0.0 mm
10:40 AM 55.3°F12.9°C 42.2°F5.7°C 61% 2.6 mph NW4.2 kmh NW 11.0 mph17.7 kmh 30.19 in1022.4 mb 0.00 in0.0 mm 0.00 in0.0 mm 0.00 in0.0 mm
10:45 AM 55.6°F13.1°C 42.0°F5.6°C 60% 3.9 mph NW6.3 kmh NW 9.0 mph14.5 kmh 30.19 in1022.4 mb 0.00 in0.0 mm 0.00 in0.0 mm 0.00 in0.0 mm
10:50 AM 55.8°F13.2°C 41.8°F5.4°C 59% 4.9 mph NNW7.9 kmh NNW 10.0 mph16.1 kmh 30.19 in1022.4 mb 0.00 in0.0 mm 0.00 in0.0 mm 0.00 in0.0 mm
10:55 AM 56.2°F13.4°C 42.5°F5.8°C 60% 2.0 mph NW3.2 kmh NW 10.0 mph16.1 kmh 30.19 in1022.4 mb 0.00 in0.0 mm 0.00 in0.0 mm 0.00 in0.0 mm
11:00 AM 56.6°F13.7°C 42.1°F5.6°C 58% 4.6 mph WNW7.4 kmh WNW 10.0 mph16.1 kmh 30.19 in1022.4 mb 0.00 in0.0 mm 0.00 in0.0 mm 0.00 in0.0 mm
11:05 AM 56.6°F13.7°C 41.6°F5.3°C 57% 4.2 mph NW6.8 kmh NW 10.0 mph16.1 kmh 30.19 in1022.4 mb 0.00 in0.0 mm 0.00 in0.0 mm 0.00 in0.0 mm
11:09 AM 56.7°F13.7°C 42.2°F5.7°C 58% 2.0 mph NW3.2 kmh NW 10.0 mph16.1 kmh 30.18 in1022.0 mb 0.00 in0.0 mm 0.00 in0.0 mm 0.00 in0.0 mm
11:15 AM 56.9°F13.8°C 42.7°F5.9°C 59% 1.7 mph NW2.7 kmh NW 10.0 mph16.1 kmh 30.18 in1022.0 mb 0.00 in0.0 mm 0.00 in0.0 mm 0.00 in0.0 mm
11:20 AM 57.1°F13.9°C 41.5°F5.3°C 56% 3.2 mph NW5.1 kmh NW 9.0 mph14.5 kmh 30.18 in1022.0 mb 0.00 in0.0 mm 0.00 in0.0 mm 0.00 in0.0 mm
11:25 AM 57.7°F14.3°C 42.6°F5.9°C 57% 1.8 mph W2.9 kmh W 9.0 mph14.5 kmh 30.18 in1022.0 mb 0.00 in0.0 mm 0.00 in0.0 mm 0.00 in0.0 mm
11:30 AM 57.8°F14.3°C 42.3°F5.7°C 56% 2.8 mph W4.5 kmh W 7.0 mph11.3 kmh 30.17 in1021.7 mb 0.00 in0.0 mm 0.00 in0.0 mm 0.00 in0.0 mm
11:35 AM 57.9°F14.4°C 42.4°F5.8°C 56% 4.6 mph W7.4 kmh W 9.0 mph14.5 kmh 30.17 in1021.7 mb 0.00 in0.0 mm 0.00 in0.0 mm 0.00 in0.0 mm
11:40 AM 58.0°F14.4°C 42.0°F5.6°C 55% 3.4 mph WNW5.5 kmh WNW 10.0 mph16.1 kmh 30.17 in1021.7 mb 0.00 in0.0 mm 0.00 in0.0 mm 0.00 in0.0 mm
11:45 AM 58.4°F14.7°C 41.4°F5.2°C 53% 4.4 mph WNW7.1 kmh WNW 11.0 mph17.7 kmh 30.17 in1021.7 mb 0.00 in0.0 mm 0.00 in0.0 mm 0.00 in0.0 mm
11:50 AM 58.5°F14.7°C 41.5°F5.3°C 53% 3.2 mph WNW5.1 kmh WNW 11.0 mph17.7 kmh 30.17 in1021.7 mb 0.00 in0.0 mm 0.00 in0.0 mm 0.00 in0.0 mm
11:54 AM 58.9°F14.9°C 41.8°F5.4°C 53% 2.2 mph NW3.5 kmh NW 11.0 mph17.7 kmh 30.17 in1021.7 mb 0.00 in0.0 mm 0.00 in0.0 mm 0.00 in0.0 mm
11:59 AM 59.2°F15.1°C 41.1°F5.1°C 51% 4.9 mph WNW7.9 kmh WNW 11.0 mph17.7 kmh 30.17 in1021.7 mb 0.00 in0.0 mm 0.00 in0.0 mm 0.00 in0.0 mm
12:04 PM 59.3°F15.2°C 41.2°F5.1°C 51% 3.7 mph NW6.0 kmh NW 10.0 mph16.1 kmh 30.16 in1021.3 mb 0.00 in0.0 mm 0.00 in0.0 mm 0.00 in0.0 mm
12:09 PM 59.6°F15.3°C 41.5°F5.3°C 51% 4.1 mph WNW6.6 kmh WNW 14.0 mph22.5 kmh 30.16 in1021.3 mb 0.00 in0.0 mm 0.00 in0.0 mm 0.00 in0.0 mm
12:14 PM 60.0°F15.6°C 41.8°F5.4°C 51% 1.8 mph NW2.9 kmh NW 14.0 mph22.5 kmh 30.16 in1021.3 mb 0.00 in0.0 mm 0.00 in0.0 mm 0.00 in0.0 mm
12:19 PM 60.4°F15.8°C 42.2°F5.7°C 51% 5.4 mph W8.7 kmh W 14.0 mph22.5 kmh 30.16 in1021.3 mb 0.00 in0.0 mm 0.00 in0.0 mm 0.00 in0.0 mm
12:24 PM 60.5°F15.8°C 42.8°F6.0°C 52% 1.6 mph NW2.6 kmh NW 14.0 mph22.5 kmh 30.15 in1021.0 mb 0.00 in0.0 mm 0.00 in0.0 mm 0.00 in0.0 mm
12:29 PM 60.9°F16.1°C 41.6°F5.3°C 49% 3.7 mph NW6.0 kmh NW 12.0 mph19.3 kmh 30.15 in1021.0 mb 0.00 in0.0 mm 0.00 in0.0 mm 0.00 in0.0 mm
12:34 PM 61.1°F16.2°C 41.8°F5.4°C 49% 1.7 mph WNW2.7 kmh WNW 12.0 mph19.3 kmh 30.15 in1021.0 mb 0.00 in0.0 mm 0.00 in0.0 mm 0.00 in0.0 mm
12:39 PM 61.3°F16.3°C 41.4°F5.2°C 48% 2.9 mph NW4.7 kmh NW 11.0 mph17.7 kmh 30.15 in1021.0 mb 0.00 in0.0 mm 0.00 in0.0 mm 0.00 in0.0 mm
12:44 PM 61.4°F16.3°C 41.5°F5.3°C 48% 3.4 mph NW5.5 kmh NW 9.0 mph14.5 kmh 30.15 in1021.0 mb 0.00 in0.0 mm 0.00 in0.0 mm 0.00 in0.0 mm
12:49 PM 61.8°F16.6°C 41.3°F5.2°C 47% 3.1 mph NW5.0 kmh NW 10.0 mph16.1 kmh 30.14 in1020.7 mb 0.00 in0.0 mm 0.00 in0.0 mm 0.00 in0.0 mm
12:54 PM 62.1°F16.7°C 39.3°F4.1°C 43% 4.6 mph NW7.4 kmh NW 10.0 mph16.1 kmh 30.14 in1020.7 mb 0.00 in0.0 mm 0.00 in0.0 mm 0.00 in0.0 mm
12:59 PM 62.3°F16.8°C 38.8°F3.8°C 42% 3.3 mph W5.3 kmh W 10.0 mph16.1 kmh 30.14 in1020.7 mb 0.00 in0.0 mm 0.00 in0.0 mm 0.00 in0.0 mm
01:04 PM 62.6°F17.0°C 39.1°F3.9°C 42% 2.0 mph NW3.2 kmh NW 10.0 mph16.1 kmh 30.13 in1020.3 mb 0.00 in0.0 mm 0.00 in0.0 mm 0.00 in0.0 mm
01:09 PM 62.9°F17.2°C 39.4°F4.1°C 42% 3.1 mph NW5.0 kmh NW 10.0 mph16.1 kmh 30.13 in1020.3 mb 0.00 in0.0 mm 0.00 in0.0 mm 0.00 in0.0 mm
01:14 PM 62.9°F17.2°C 38.8°F3.8°C 41% 3.6 mph NW5.8 kmh NW 12.0 mph19.3 kmh 30.13 in1020.3 mb 0.00 in0.0 mm 0.00 in0.0 mm 0.00 in0.0 mm
01:19 PM 63.0°F17.2°C 37.5°F3.1°C 39% 4.9 mph WNW7.9 kmh WNW 12.0 mph19.3 kmh 30.12 in1020.0 mb 0.00 in0.0 mm 0.00 in0.0 mm 0.00 in0.0 mm
01:24 PM 62.9°F17.2°C 37.4°F3.0°C 39% 3.5 mph NW5.6 kmh NW 13.0 mph20.9 kmh 30.12 in1020.0 mb 0.00 in0.0 mm 0.00 in0.0 mm 0.00 in0.0 mm
01:29 PM 63.2°F17.3°C 37.0°F2.8°C 38% 3.0 mph WNW4.8 kmh WNW 13.0 mph20.9 kmh 30.11 in1019.6 mb 0.00 in0.0 mm 0.00 in0.0 mm 0.00 in0.0 mm
01:34 PM 63.3°F17.4°C 36.4°F2.4°C 37% 3.3 mph NW5.3 kmh NW 13.0 mph20.9 kmh 30.11 in1019.6 mb 0.00 in0.0 mm 0.00 in0.0 mm 0.00 in0.0 mm
01:39 PM 63.3°F17.4°C 35.7°F2.1°C 36% 4.0 mph NW6.4 kmh NW 13.0 mph20.9 kmh 30.11 in1019.6 mb 0.00 in0.0 mm 0.00 in0.0 mm 0.00 in0.0 mm
01:44 PM 63.3°F17.4°C 35.7°F2.1°C 36% 3.8 mph NW6.1 kmh NW 11.0 mph17.7 kmh 30.11 in1019.6 mb 0.00 in0.0 mm 0.00 in0.0 mm 0.00 in0.0 mm
01:49 PM 63.4°F17.4°C 36.5°F2.5°C 37% 3.1 mph NW5.0 kmh NW 11.0 mph17.7 kmh 30.11 in1019.6 mb 0.00 in0.0 mm 0.00 in0.0 mm 0.00 in0.0 mm
01:54 PM 63.4°F17.4°C 36.0°F2.2°C 36% 3.4 mph WNW5.5 kmh WNW 10.0 mph16.1 kmh 30.11 in1019.6 mb 0.00 in0.0 mm 0.00 in0.0 mm 0.00 in0.0 mm
02:00 PM 63.4°F17.4°C 36.7°F2.6°C 37% 5.0 mph WNW8.0 kmh WNW 10.0 mph16.1 kmh 30.10 in1019.3 mb 0.00 in0.0 mm 0.00 in0.0 mm 0.00 in0.0 mm
02:05 PM 63.6°F17.6°C 36.7°F2.6°C 37% 3.1 mph WNW5.0 kmh WNW 10.0 mph16.1 kmh 30.10 in1019.3 mb 0.00 in0.0 mm 0.00 in0.0 mm 0.00 in0.0 mm
02:10 PM 63.5°F17.5°C 36.6°F2.6°C 37% 6.0 mph WNW9.7 kmh WNW 10.0 mph16.1 kmh 30.10 in1019.3 mb 0.00 in0.0 mm 0.00 in0.0 mm 0.00 in0.0 mm
02:17 PM 63.7°F17.6°C 37.4°F3.0°C 38% 5.1 mph W8.2 kmh W 10.0 mph16.1 kmh 30.10 in1019.3 mb 0.00 in0.0 mm 0.00 in0.0 mm 0.00 in0.0 mm
02:22 PM 63.9°F17.7°C 37.6°F3.1°C 38% 4.9 mph WNW7.9 kmh WNW 10.0 mph16.1 kmh 30.10 in1019.3 mb 0.00 in0.0 mm 0.00 in0.0 mm 0.00 in0.0 mm
02:27 PM 63.9°F17.7°C 36.9°F2.7°C 37% 3.5 mph NW5.6 kmh NW 12.0 mph19.3 kmh 30.10 in1019.3 mb 0.00 in0.0 mm 0.00 in0.0 mm 0.00 in0.0 mm
02:32 PM 63.6°F17.6°C 36.7°F2.6°C 37% 3.4 mph W5.5 kmh W 12.0 mph19.3 kmh 30.10 in1019.3 mb 0.00 in0.0 mm 0.00 in0.0 mm 0.00 in0.0 mm
02:37 PM 63.7°F17.6°C 37.4°F3.0°C 38% 4.9 mph WNW7.9 kmh WNW 12.0 mph19.3 kmh 30.10 in1019.3 mb 0.00 in0.0 mm 0.00 in0.0 mm 0.00 in0.0 mm
02:42 PM 63.6°F17.6°C 36.7°F2.6°C 37% 3.3 mph W5.3 kmh W 12.0 mph19.3 kmh 30.10 in1019.3 mb 0.00 in0.0 mm 0.00 in0.0 mm 0.00 in0.0 mm
02:47 PM 63.9°F17.7°C 36.2°F2.3°C 36% 4.2 mph NW6.8 kmh NW 15.0 mph24.1 kmh 30.09 in1019.0 mb 0.00 in0.0 mm 0.00 in0.0 mm 0.00 in0.0 mm
02:52 PM 63.9°F17.7°C 34.8°F1.6°C 34% 5.0 mph NW8.0 kmh NW 15.0 mph24.1 kmh 30.09 in1019.0 mb 0.00 in0.0 mm 0.00 in0.0 mm 0.00 in0.0 mm
02:57 PM 64.1°F17.8°C 35.7°F2.1°C 35% 1.3 mph WNW2.1 kmh WNW 15.0 mph24.1 kmh 30.09 in1019.0 mb 0.00 in0.0 mm 0.00 in0.0 mm 0.00 in0.0 mm
03:02 PM 64.3°F17.9°C 35.9°F2.2°C 35% 4.1 mph WNW6.6 kmh WNW 15.0 mph24.1 kmh 30.09 in1019.0 mb 0.00 in0.0 mm 0.00 in0.0 mm 0.00 in0.0 mm
03:07 PM 63.8°F17.7°C 35.6°F2.0°C 35% 3.8 mph NW6.1 kmh NW 16.0 mph25.7 kmh 30.09 in1019.0 mb 0.00 in0.0 mm 0.00 in0.0 mm 0.00 in0.0 mm
03:12 PM 63.8°F17.7°C 35.4°F1.9°C 35% 4.5 mph W7.2 kmh W 16.0 mph25.7 kmh 30.10 in1019.3 mb 0.00 in0.0 mm 0.00 in0.0 mm 0.00 in0.0 mm
03:17 PM 63.7°F17.6°C 34.8°F1.6°C 34% 7.2 mph WNW11.6 kmh WNW 16.0 mph25.7 kmh 30.10 in1019.3 mb 0.00 in0.0 mm 0.00 in0.0 mm 0.00 in0.0 mm
03:22 PM 63.7°F17.6°C 35.5°F1.9°C 35% 3.5 mph WNW5.6 kmh WNW 16.0 mph25.7 kmh 30.09 in1019.0 mb 0.00 in0.0 mm 0.00 in0.0 mm 0.00 in0.0 mm
03:27 PM 63.9°F17.7°C 35.5°F1.9°C 35% 3.4 mph NW5.5 kmh NW 16.0 mph25.7 kmh 30.09 in1019.0 mb 0.00 in0.0 mm 0.00 in0.0 mm 0.00 in0.0 mm
03:32 PM 64.0°F17.8°C 34.9°F1.6°C 34% 4.2 mph NW6.8 kmh NW 16.0 mph25.7 kmh 30.10 in1019.3 mb 0.00 in0.0 mm 0.00 in0.0 mm 0.00 in0.0 mm
03:37 PM 63.9°F17.7°C 34.8°F1.6°C 34% 4.2 mph NW6.8 kmh NW 12.0 mph19.3 kmh 30.09 in1019.0 mb 0.00 in0.0 mm 0.00 in0.0 mm 0.00 in0.0 mm
03:42 PM 63.8°F17.7°C 35.4°F1.9°C 35% 4.0 mph NW6.4 kmh NW 12.0 mph19.3 kmh 30.10 in1019.3 mb 0.00 in0.0 mm 0.00 in0.0 mm 0.00 in0.0 mm
03:47 PM 63.8°F17.7°C 35.4°F1.9°C 35% 2.0 mph NW3.2 kmh NW 12.0 mph19.3 kmh 30.10 in1019.3 mb 0.00 in0.0 mm 0.00 in0.0 mm 0.00 in0.0 mm
03:52 PM 63.8°F17.7°C 36.8°F2.7°C 37% 3.4 mph WNW5.5 kmh WNW 11.0 mph17.7 kmh 30.10 in1019.3 mb 0.00 in0.0 mm 0.00 in0.0 mm 0.00 in0.0 mm
03:57 PM 64.1°F17.8°C 37.1°F2.8°C 37% 2.4 mph WNW3.9 kmh WNW 11.0 mph17.7 kmh 30.10 in1019.3 mb 0.00 in0.0 mm 0.00 in0.0 mm 0.00 in0.0 mm
04:02 PM 63.9°F17.7°C 36.2°F2.3°C 36% 3.8 mph NW6.1 kmh NW 10.0 mph16.1 kmh 30.10 in1019.3 mb 0.00 in0.0 mm 0.00 in0.0 mm 0.00 in0.0 mm
04:07 PM 63.7°F17.6°C 34.6°F1.4°C 34% 4.3 mph NW6.9 kmh NW 9.0 mph14.5 kmh 30.10 in1019.3 mb 0.00 in0.0 mm 0.00 in0.0 mm 0.00 in0.0 mm
04:12 PM 63.6°F17.6°C 35.4°F1.9°C 35% 2.6 mph NW4.2 kmh NW 10.0 mph16.1 kmh 30.10 in1019.3 mb 0.00 in0.0 mm 0.00 in0.0 mm 0.00 in0.0 mm
04:17 PM 63.6°F17.6°C 35.2°F1.8°C 35% 3.6 mph WNW5.8 kmh WNW 10.0 mph16.1 kmh 30.10 in1019.3 mb 0.00 in0.0 mm 0.00 in0.0 mm 0.00 in0.0 mm
04:22 PM 63.5°F17.5°C 34.6°F1.4°C 34% 4.8 mph NW7.7 kmh NW 11.0 mph17.7 kmh 30.10 in1019.3 mb 0.00 in0.0 mm 0.00 in0.0 mm 0.00 in0.0 mm
04:27 PM 63.3°F17.4°C 34.4°F1.3°C 34% 4.1 mph NW6.6 kmh NW 11.0 mph17.7 kmh 30.10 in1019.3 mb 0.00 in0.0 mm 0.00 in0.0 mm 0.00 in0.0 mm
04:32 PM 63.3°F17.4°C 35.0°F1.7°C 35% 2.6 mph WNW4.2 kmh WNW 11.0 mph17.7 kmh 30.10 in1019.3 mb 0.00 in0.0 mm 0.00 in0.0 mm 0.00 in0.0 mm
04:37 PM 63.2°F17.3°C 34.9°F1.6°C 35% 4.5 mph WNW7.2 kmh WNW 11.0 mph17.7 kmh 30.10 in1019.3 mb 0.00 in0.0 mm 0.00 in0.0 mm 0.00 in0.0 mm
04:42 PM 63.1°F17.3°C 34.8°F1.6°C 35% 2.7 mph NW4.3 kmh NW 11.0 mph17.7 kmh 30.10 in1019.3 mb 0.00 in0.0 mm 0.00 in0.0 mm 0.00 in0.0 mm
04:47 PM 63.0°F17.2°C 34.7°F1.5°C 35% 2.5 mph NW4.0 kmh NW 11.0 mph17.7 kmh 30.10 in1019.3 mb 0.00 in0.0 mm 0.00 in0.0 mm 0.00 in0.0 mm
04:52 PM 62.8°F17.1°C 35.2°F1.8°C 36% 3.5 mph WNW5.6 kmh WNW 10.0 mph16.1 kmh 30.10 in1019.3 mb 0.00 in0.0 mm 0.00 in0.0 mm 0.00 in0.0 mm
04:57 PM 62.6°F17.0°C 35.1°F1.7°C 36% 2.1 mph WNW3.4 kmh WNW 10.0 mph16.1 kmh 30.10 in1019.3 mb 0.00 in0.0 mm 0.00 in0.0 mm 0.00 in0.0 mm
05:02 PM 62.4°F16.9°C 35.6°F2.0°C 37% 1.3 mph WNW2.1 kmh WNW 10.0 mph16.1 kmh 30.10 in1019.3 mb 0.00 in0.0 mm 0.00 in0.0 mm 0.00 in0.0 mm
05:07 PM 62.0°F16.7°C 35.2°F1.8°C 37% 1.4 mph WNW2.3 kmh WNW 10.0 mph16.1 kmh 30.11 in1019.6 mb 0.00 in0.0 mm 0.00 in0.0 mm 0.00 in0.0 mm
05:12 PM 61.8°F16.6°C 35.9°F2.2°C 38% 2.0 mph WNW3.2 kmh WNW 10.0 mph16.1 kmh 30.11 in1019.6 mb 0.00 in0.0 mm 0.00 in0.0 mm 0.00 in0.0 mm
05:17 PM 61.6°F16.4°C 35.6°F2.0°C 38% 2.6 mph WNW4.2 kmh WNW 7.0 mph11.3 kmh 30.11 in1019.6 mb 0.00 in0.0 mm 0.00 in0.0 mm 0.00 in0.0 mm
05:22 PM 61.3°F16.3°C 36.0°F2.2°C 39% 1.4 mph WNW2.3 kmh WNW 7.0 mph11.3 kmh 30.11 in1019.6 mb 0.00 in0.0 mm 0.00 in0.0 mm 0.00 in0.0 mm
05:27 PM 60.9°F16.1°C 36.3°F2.4°C 40% 1.9 mph WNW3.1 kmh WNW 6.0 mph9.7 kmh 30.11 in1019.6 mb 0.00 in0.0 mm 0.00 in0.0 mm 0.00 in0.0 mm
05:32 PM 60.5°F15.8°C 35.9°F2.2°C 40% 2.2 mph W3.5 kmh W 6.0 mph9.7 kmh 30.11 in1019.6 mb 0.00 in0.0 mm 0.00 in0.0 mm 0.00 in0.0 mm
05:37 PM 60.1°F15.6°C 36.2°F2.3°C 41% 2.7 mph WNW4.3 kmh WNW 8.0 mph12.9 kmh 30.11 in1019.6 mb 0.00 in0.0 mm 0.00 in0.0 mm 0.00 in0.0 mm
05:42 PM 59.8°F15.4°C 35.9°F2.2°C 41% 2.9 mph WNW4.7 kmh WNW 8.0 mph12.9 kmh 30.11 in1019.6 mb 0.00 in0.0 mm 0.00 in0.0 mm 0.00 in0.0 mm
05:47 PM 59.5°F15.3°C 35.6°F2.0°C 41% 3.1 mph WNW5.0 kmh WNW 8.0 mph12.9 kmh 30.11 in1019.6 mb 0.00 in0.0 mm 0.00 in0.0 mm 0.00 in0.0 mm
05:52 PM 59.2°F15.1°C 36.0°F2.2°C 42% 1.4 mph WNW2.3 kmh WNW 8.0 mph12.9 kmh 30.11 in1019.6 mb 0.00 in0.0 mm 0.00 in0.0 mm 0.00 in0.0 mm
05:57 PM 59.0°F15.0°C 35.8°F2.1°C 42% 2.7 mph W4.3 kmh W 7.0 mph11.3 kmh 30.11 in1019.6 mb 0.00 in0.0 mm 0.00 in0.0 mm 0.00 in0.0 mm
06:02 PM 58.9°F14.9°C 35.7°F2.1°C 42% 2.8 mph WNW4.5 kmh WNW 6.0 mph9.7 kmh 30.12 in1020.0 mb 0.00 in0.0 mm 0.00 in0.0 mm 0.00 in0.0 mm
06:07 PM 58.7°F14.8°C 35.5°F1.9°C 42% 1.6 mph W2.6 kmh W 6.0 mph9.7 kmh 30.12 in1020.0 mb 0.00 in0.0 mm 0.00 in0.0 mm 0.00 in0.0 mm
06:12 PM 58.5°F14.7°C 35.3°F1.8°C 42% 2.0 mph WNW3.2 kmh WNW 6.0 mph9.7 kmh 30.12 in1020.0 mb 0.00 in0.0 mm 0.00 in0.0 mm 0.00 in0.0 mm
06:17 PM 58.2°F14.6°C 35.2°F1.8°C 42% 1.6 mph W2.6 kmh W 6.0 mph9.7 kmh 30.12 in1020.0 mb 0.00 in0.0 mm 0.00 in0.0 mm 0.00 in0.0 mm
06:22 PM 57.9°F14.4°C 35.4°F1.9°C 43% 1.7 mph WNW2.7 kmh WNW 6.0 mph9.7 kmh 30.12 in1020.0 mb 0.00 in0.0 mm 0.00 in0.0 mm 0.00 in0.0 mm
06:27 PM 57.5°F14.2°C 35.0°F1.7°C 43% 1.8 mph WNW2.9 kmh WNW 5.0 mph8.0 kmh 30.12 in1020.0 mb 0.00 in0.0 mm 0.00 in0.0 mm 0.00 in0.0 mm
06:32 PM 57.2°F14.0°C 35.4°F1.9°C 44% 1.5 mph WNW2.4 kmh WNW 5.0 mph8.0 kmh 30.13 in1020.3 mb 0.00 in0.0 mm 0.00 in0.0 mm 0.00 in0.0 mm
06:37 PM 56.9°F13.8°C 35.1°F1.7°C 44% 1.4 mph NW2.3 kmh NW 5.0 mph8.0 kmh 30.12 in1020.0 mb 0.00 in0.0 mm 0.00 in0.0 mm 0.00 in0.0 mm
06:42 PM 56.6°F13.7°C 34.8°F1.6°C 44% 1.4 mph NW2.3 kmh NW 4.0 mph6.4 kmh 30.12 in1020.0 mb 0.00 in0.0 mm 0.00 in0.0 mm 0.00 in0.0 mm
06:47 PM 56.4°F13.6°C 34.6°F1.4°C 44% 1.4 mph WNW2.3 kmh WNW 4.0 mph6.4 kmh 30.12 in1020.0 mb 0.00 in0.0 mm 0.00 in0.0 mm 0.00 in0.0 mm
06:52 PM 56.3°F13.5°C 34.6°F1.4°C 44% 2.3 mph WNW3.7 kmh WNW 5.0 mph8.0 kmh 30.12 in1020.0 mb 0.00 in0.0 mm 0.00 in0.0 mm 0.00 in0.0 mm
06:57 PM 56.3°F13.5°C 34.6°F1.4°C 44% 2.9 mph W4.7 kmh W 6.0 mph9.7 kmh 30.12 in1020.0 mb 0.00 in0.0 mm 0.00 in0.0 mm 0.00 in0.0 mm
07:02 PM 56.3°F13.5°C 34.6°F1.4°C 44% 3.0 mph W4.8 kmh W 7.0 mph11.3 kmh 30.13 in1020.3 mb 0.00 in0.0 mm 0.00 in0.0 mm 0.00 in0.0 mm
07:07 PM 56.2°F13.4°C 34.0°F1.1°C 43% 3.6 mph WNW5.8 kmh WNW 8.0 mph12.9 kmh 30.13 in1020.3 mb 0.00 in0.0 mm 0.00 in0.0 mm 0.00 in0.0 mm
07:12 PM 56.1°F13.4°C 34.4°F1.3°C 44% 2.5 mph WNW4.0 kmh WNW 8.0 mph12.9 kmh 30.13 in1020.3 mb 0.00 in0.0 mm 0.00 in0.0 mm 0.00 in0.0 mm
07:17 PM 55.7°F13.2°C 34.0°F1.1°C 44% 3.0 mph WNW4.8 kmh WNW 8.0 mph12.9 kmh 30.13 in1020.3 mb 0.00 in0.0 mm 0.00 in0.0 mm 0.00 in0.0 mm
07:22 PM 55.5°F13.1°C 34.4°F1.3°C 45% 2.3 mph WNW3.7 kmh WNW 8.0 mph12.9 kmh 30.13 in1020.3 mb 0.00 in0.0 mm 0.00 in0.0 mm 0.00 in0.0 mm
07:27 PM 55.3°F12.9°C 34.2°F1.2°C 45% 2.9 mph WNW4.7 kmh WNW 7.0 mph11.3 kmh 30.13 in1020.3 mb 0.00 in0.0 mm 0.00 in0.0 mm 0.00 in0.0 mm
07:32 PM 55.4°F13.0°C 33.8°F1.0°C 44% 3.6 mph W5.8 kmh W 11.0 mph17.7 kmh 30.13 in1020.3 mb 0.00 in0.0 mm 0.00 in0.0 mm 0.00 in0.0 mm
07:37 PM 55.3°F12.9°C 34.3°F1.3°C 45% 2.0 mph WNW3.2 kmh WNW 11.0 mph17.7 kmh 30.13 in1020.3 mb 0.00 in0.0 mm 0.00 in0.0 mm 0.00 in0.0 mm
07:42 PM 55.2°F12.9°C 34.1°F1.2°C 45% 2.9 mph WNW4.7 kmh WNW 11.0 mph17.7 kmh 30.13 in1020.3 mb 0.00 in0.0 mm 0.00 in0.0 mm 0.00 in0.0 mm
07:47 PM 55.0°F12.8°C 33.9°F1.1°C 45% 2.3 mph WNW3.7 kmh WNW 7.0 mph11.3 kmh 30.13 in1020.3 mb 0.00 in0.0 mm 0.00 in0.0 mm 0.00 in0.0 mm
07:52 PM 54.7°F12.6°C 34.2°F1.2°C 46% 1.4 mph WNW2.3 kmh WNW 7.0 mph11.3 kmh 30.13 in1020.3 mb 0.00 in0.0 mm 0.00 in0.0 mm 0.00 in0.0 mm
07:57 PM 54.4°F12.4°C 34.0°F1.1°C 46% 2.3 mph NW3.7 kmh NW 7.0 mph11.3 kmh 30.13 in1020.3 mb 0.00 in0.0 mm 0.00 in0.0 mm 0.00 in0.0 mm
08:02 PM 54.2°F12.3°C 34.3°F1.3°C 47% 2.3 mph W3.7 kmh W 7.0 mph11.3 kmh 30.13 in1020.3 mb 0.00 in0.0 mm 0.00 in0.0 mm 0.00 in0.0 mm
08:07 PM 53.9°F12.2°C 34.6°F1.4°C 48% 3.3 mph WNW5.3 kmh WNW 7.0 mph11.3 kmh 30.13 in1020.3 mb 0.00 in0.0 mm 0.00 in0.0 mm 0.00 in0.0 mm
08:12 PM 53.7°F12.1°C 34.4°F1.3°C 48% 1.7 mph WNW2.7 kmh WNW 7.0 mph11.3 kmh 30.13 in1020.3 mb 0.00 in0.0 mm 0.00 in0.0 mm 0.00 in0.0 mm
08:17 PM 53.6°F12.0°C 34.9°F1.6°C 49% 2.8 mph WNW4.5 kmh WNW 9.0 mph14.5 kmh 30.13 in1020.3 mb 0.00 in0.0 mm 0.00 in0.0 mm 0.00 in0.0 mm
08:22 PM 53.5°F11.9°C 35.3°F1.8°C 50% 4.2 mph WNW6.8 kmh WNW 9.0 mph14.5 kmh 30.13 in1020.3 mb 0.00 in0.0 mm 0.00 in0.0 mm 0.00 in0.0 mm
08:27 PM 53.5°F11.9°C 35.3°F1.8°C 50% 3.9 mph WNW6.3 kmh WNW 9.0 mph14.5 kmh 30.13 in1020.3 mb 0.00 in0.0 mm 0.00 in0.0 mm 0.00 in0.0 mm
08:32 PM 53.3°F11.8°C 35.6°F2.0°C 51% 2.3 mph WNW3.7 kmh WNW 9.0 mph14.5 kmh 30.13 in1020.3 mb 0.00 in0.0 mm 0.00 in0.0 mm 0.00 in0.0 mm
08:37 PM 53.2°F11.8°C 35.5°F1.9°C 51% 2.8 mph NW4.5 kmh NW 8.0 mph12.9 kmh 30.12 in1020.0 mb 0.00 in0.0 mm 0.00 in0.0 mm 0.00 in0.0 mm
08:42 PM 53.2°F11.8°C 35.5°F1.9°C 51% 3.7 mph NW6.0 kmh NW 8.0 mph12.9 kmh 30.12 in1020.0 mb 0.00 in0.0 mm 0.00 in0.0 mm 0.00 in0.0 mm
08:47 PM 53.1°F11.7°C 35.4°F1.9°C 51% 3.5 mph WNW5.6 kmh WNW 8.0 mph12.9 kmh 30.12 in1020.0 mb 0.00 in0.0 mm 0.00 in0.0 mm 0.00 in0.0 mm
08:51 PM 53.0°F11.7°C 35.8°F2.1°C 52% 2.9 mph NW4.7 kmh NW 8.0 mph12.9 kmh 30.12 in1020.0 mb 0.00 in0.0 mm 0.00 in0.0 mm 0.00 in0.0 mm
08:56 PM 52.9°F11.6°C 35.8°F2.1°C 52% 2.8 mph NW4.5 kmh NW 8.0 mph12.9 kmh 30.12 in1020.0 mb 0.00 in0.0 mm 0.00 in0.0 mm 0.00 in0.0 mm
09:01 PM 52.8°F11.6°C 35.6°F2.0°C 52% 3.0 mph WNW4.8 kmh WNW 8.0 mph12.9 kmh 30.12 in1020.0 mb 0.00 in0.0 mm 0.00 in0.0 mm 0.00 in0.0 mm
09:06 PM 52.7°F11.5°C 36.1°F2.3°C 53% 2.9 mph WNW4.7 kmh WNW 8.0 mph12.9 kmh 30.12 in1020.0 mb 0.00 in0.0 mm 0.00 in0.0 mm 0.00 in0.0 mm
09:11 PM 52.6°F11.4°C 36.0°F2.2°C 53% 1.9 mph NW3.1 kmh NW 8.0 mph12.9 kmh 30.11 in1019.6 mb 0.00 in0.0 mm 0.00 in0.0 mm 0.00 in0.0 mm
09:16 PM 52.5°F11.4°C 36.4°F2.4°C 54% 1.1 mph WNW1.8 kmh WNW 8.0 mph12.9 kmh 30.12 in1020.0 mb 0.00 in0.0 mm 0.00 in0.0 mm 0.00 in0.0 mm
09:21 PM 52.4°F11.3°C 36.2°F2.3°C 54% 2.6 mph WNW4.2 kmh WNW 7.0 mph11.3 kmh 30.12 in1020.0 mb 0.00 in0.0 mm 0.00 in0.0 mm 0.00 in0.0 mm
09:26 PM 52.3°F11.3°C 36.2°F2.3°C 54% 2.1 mph WNW3.4 kmh WNW 7.0 mph11.3 kmh 30.12 in1020.0 mb 0.00 in0.0 mm 0.00 in0.0 mm 0.00 in0.0 mm
09:31 PM 52.1°F11.2°C 35.9°F2.2°C 54% 2.0 mph WNW3.2 kmh WNW 6.0 mph9.7 kmh 30.12 in1020.0 mb 0.00 in0.0 mm 0.00 in0.0 mm 0.00 in0.0 mm
09:36 PM 51.8°F11.0°C 36.2°F2.3°C 55% 1.8 mph W2.9 kmh W 6.0 mph9.7 kmh 30.12 in1020.0 mb 0.00 in0.0 mm 0.00 in0.0 mm 0.00 in0.0 mm
09:41 PM 51.7°F10.9°C 36.1°F2.3°C 55% 3.8 mph WNW6.1 kmh WNW 7.0 mph11.3 kmh 30.12 in1020.0 mb 0.00 in0.0 mm 0.00 in0.0 mm 0.00 in0.0 mm
09:46 PM 51.6°F10.9°C 36.5°F2.5°C 56% 3.0 mph WNW4.8 kmh WNW 7.0 mph11.3 kmh 30.13 in1020.3 mb 0.00 in0.0 mm 0.00 in0.0 mm 0.00 in0.0 mm
09:51 PM 51.5°F10.8°C 36.3°F2.4°C 56% 2.5 mph W4.0 kmh W 7.0 mph11.3 kmh 30.13 in1020.3 mb 0.00 in0.0 mm 0.00 in0.0 mm 0.00 in0.0 mm
09:56 PM 51.3°F10.7°C 36.2°F2.3°C 56% 3.5 mph WNW5.6 kmh WNW 7.0 mph11.3 kmh 30.13 in1020.3 mb 0.00 in0.0 mm 0.00 in0.0 mm 0.00 in0.0 mm
10:01 PM 51.2°F10.7°C 36.1°F2.3°C 56% 2.3 mph WNW3.7 kmh WNW 7.0 mph11.3 kmh 30.13 in1020.3 mb 0.00 in0.0 mm 0.00 in0.0 mm 0.00 in0.0 mm
10:06 PM 51.1°F10.6°C 35.9°F2.2°C 56% 3.1 mph W5.0 kmh W 7.0 mph11.3 kmh 30.13 in1020.3 mb 0.00 in0.0 mm 0.00 in0.0 mm 0.00 in0.0 mm
10:11 PM 51.0°F10.6°C 36.4°F2.4°C 57% 2.0 mph W3.2 kmh W 7.0 mph11.3 kmh 30.13 in1020.3 mb 0.00 in0.0 mm 0.00 in0.0 mm 0.00 in0.0 mm
10:16 PM 50.7°F10.4°C 36.0°F2.2°C 57% 1.6 mph W2.6 kmh W 5.0 mph8.0 kmh 30.13 in1020.3 mb 0.00 in0.0 mm 0.00 in0.0 mm 0.00 in0.0 mm
10:21 PM 50.5°F10.3°C 36.3°F2.4°C 58% 3.2 mph WNW5.1 kmh WNW 5.0 mph8.0 kmh 30.13 in1020.3 mb 0.00 in0.0 mm 0.00 in0.0 mm 0.00 in0.0 mm
10:26 PM 50.3°F10.2°C 36.2°F2.3°C 58% 1.9 mph W3.1 kmh W 6.0 mph9.7 kmh 30.13 in1020.3 mb 0.00 in0.0 mm 0.00 in0.0 mm 0.00 in0.0 mm
10:31 PM 50.1°F10.1°C 36.4°F2.4°C 59% 2.6 mph W4.2 kmh W 6.0 mph9.7 kmh 30.13 in1020.3 mb 0.00 in0.0 mm 0.00 in0.0 mm 0.00 in0.0 mm
10:36 PM 49.9°F9.9°C 36.2°F2.3°C 59% 1.7 mph W2.7 kmh W 6.0 mph9.7 kmh 30.13 in1020.3 mb 0.00 in0.0 mm 0.00 in0.0 mm 0.00 in0.0 mm
10:41 PM 49.6°F9.8°C 36.4°F2.4°C 60% 2.7 mph WNW4.3 kmh WNW 6.0 mph9.7 kmh 30.13 in1020.3 mb 0.00 in0.0 mm 0.00 in0.0 mm 0.00 in0.0 mm
10:46 PM 49.5°F9.7°C 36.3°F2.4°C 60% 2.8 mph W4.5 kmh W 6.0 mph9.7 kmh 30.13 in1020.3 mb 0.00 in0.0 mm 0.00 in0.0 mm 0.00 in0.0 mm
10:51 PM 49.4°F9.7°C 36.5°F2.5°C 61% 2.9 mph W4.7 kmh W 7.0 mph11.3 kmh 30.13 in1020.3 mb 0.00 in0.0 mm 0.00 in0.0 mm 0.00 in0.0 mm
10:56 PM 49.4°F9.7°C 36.6°F2.6°C 61% 3.0 mph WNW4.8 kmh WNW 7.0 mph11.3 kmh 30.13 in1020.3 mb 0.00 in0.0 mm 0.00 in0.0 mm 0.00 in0.0 mm
11:01 PM 49.3°F9.6°C 36.9°F2.7°C 62% 1.5 mph WNW2.4 kmh WNW 7.0 mph11.3 kmh 30.13 in1020.3 mb 0.00 in0.0 mm 0.00 in0.0 mm 0.00 in0.0 mm
11:06 PM 49.2°F9.6°C 36.8°F2.7°C 62% 1.5 mph WNW2.4 kmh WNW 7.0 mph11.3 kmh 30.13 in1020.3 mb 0.00 in0.0 mm 0.00 in0.0 mm 0.00 in0.0 mm
11:11 PM 48.9°F9.4°C 37.0°F2.8°C 63% 2.2 mph W3.5 kmh W 7.0 mph11.3 kmh 30.13 in1020.3 mb 0.00 in0.0 mm 0.00 in0.0 mm 0.00 in0.0 mm
11:16 PM 48.7°F9.3°C 36.7°F2.6°C 63% 3.1 mph WNW5.0 kmh WNW 7.0 mph11.3 kmh 30.13 in1020.3 mb 0.00 in0.0 mm 0.00 in0.0 mm 0.00 in0.0 mm
11:21 PM 48.7°F9.3°C 36.8°F2.7°C 63% 1.5 mph WNW2.4 kmh WNW 5.0 mph8.0 kmh 30.13 in1020.3 mb 0.00 in0.0 mm 0.00 in0.0 mm 0.00 in0.0 mm
11:26 PM 48.6°F9.2°C 37.0°F2.8°C 64% 2.3 mph WNW3.7 kmh WNW 5.0 mph8.0 kmh 30.13 in1020.3 mb 0.00 in0.0 mm 0.00 in0.0 mm 0.00 in0.0 mm
11:31 PM 48.4°F9.1°C 36.9°F2.7°C 64% 1.9 mph WNW3.1 kmh WNW 5.0 mph8.0 kmh 30.13 in1020.3 mb 0.00 in0.0 mm 0.00 in0.0 mm 0.00 in0.0 mm
11:36 PM 48.3°F9.1°C 37.1°F2.8°C 65% 1.6 mph WNW2.6 kmh WNW 5.0 mph8.0 kmh 30.13 in1020.3 mb 0.00 in0.0 mm 0.00 in0.0 mm 0.00 in0.0 mm
11:41 PM 48.1°F8.9°C 36.9°F2.7°C 65% 1.0 mph W1.6 kmh W 5.0 mph8.0 kmh 30.13 in1020.3 mb 0.00 in0.0 mm 0.00 in0.0 mm 0.00 in0.0 mm
11:46 PM 48.0°F8.9°C 37.3°F2.9°C 66% 1.4 mph W2.3 kmh W 4.0 mph6.4 kmh 30.13 in1020.3 mb 0.00 in0.0 mm 0.00 in0.0 mm 0.00 in0.0 mm
11:51 PM 47.7°F8.7°C 37.0°F2.8°C 66% 1.0 mph W1.6 kmh W 4.0 mph6.4 kmh 30.13 in1020.3 mb 0.00 in0.0 mm 0.00 in0.0 mm 0.00 in0.0 mm
11:56 PM 47.6°F8.7°C 37.3°F2.9°C 67% 1.0 mph WNW1.6 kmh WNW 4.0 mph6.4 kmh 30.12 in1020.0 mb 0.00 in0.0 mm 0.00 in0.0 mm 0.00 in0.0 mm